createdAt,value
2018-05-24T00:00:32.307Z,1013.57
2018-05-24T00:01:32.330Z,1013.56
2018-05-24T00:03:25.879Z,1013.58
2018-05-24T00:04:25.899Z,1013.57
2018-05-24T00:06:19.448Z,1013.55
2018-05-24T00:07:19.470Z,1013.61
2018-05-24T00:09:13.019Z,1013.57
2018-05-24T00:10:13.042Z,1013.57
2018-05-24T00:12:06.592Z,1013.59
2018-05-24T00:13:06.614Z,1013.57
2018-05-24T00:15:00.161Z,1013.57
2018-05-24T00:16:00.181Z,1013.55
2018-05-24T00:17:53.730Z,1013.48
2018-05-24T00:18:53.752Z,1013.48
2018-05-24T00:20:47.300Z,1013.49
2018-05-24T00:21:47.326Z,1013.47
2018-05-24T00:23:40.872Z,1013.46
2018-05-24T00:24:40.894Z,1013.45
2018-05-24T00:26:34.442Z,1013.43
2018-05-24T00:27:34.464Z,1013.44
2018-05-24T00:29:28.012Z,1013.46
2018-05-24T00:30:28.035Z,1013.40
2018-05-24T00:32:33.256Z,1013.38
2018-05-24T00:33:33.279Z,1013.34
2018-05-24T00:35:26.835Z,1013.34
2018-05-24T00:36:26.849Z,1013.34
2018-05-24T00:38:20.397Z,1013.30
2018-05-24T00:39:20.420Z,1013.30
2018-05-24T00:41:13.973Z,1013.27
2018-05-24T00:42:13.988Z,1013.25
2018-05-24T00:43:14.022Z,1013.25
2018-05-24T00:44:14.058Z,1013.24
2018-05-24T00:45:14.094Z,1013.26
2018-05-24T00:46:14.124Z,1013.23
2018-05-24T00:47:14.160Z,1013.18
2018-05-24T00:48:14.195Z,1013.20
2018-05-24T00:49:14.227Z,1013.19
2018-05-24T00:51:07.794Z,1013.15
2018-05-24T00:52:07.816Z,1013.18
2018-05-24T00:54:01.364Z,1013.15
2018-05-24T00:55:02.298Z,1013.14
2018-05-24T00:56:54.940Z,1013.16
2018-05-24T00:57:54.957Z,1013.09
2018-05-24T00:59:48.504Z,1013.09
2018-05-24T01:00:48.529Z,1013.09
2018-05-24T01:02:42.074Z,1013.08
2018-05-24T01:03:42.098Z,1013.11
2018-05-24T01:05:35.647Z,1013.09
2018-05-24T01:06:35.666Z,1013.11
2018-05-24T01:08:29.215Z,1013.06
2018-05-24T01:09:29.238Z,1013.11
2018-05-24T01:11:22.788Z,1013.06
2018-05-24T01:12:22.809Z,1013.11
2018-05-24T01:13:22.842Z,1013.07
2018-05-24T01:14:22.870Z,1013.08
2018-05-24T01:15:22.911Z,1013.07
2018-05-24T01:16:22.944Z,1013.09
2018-05-24T01:17:22.985Z,1013.08
2018-05-24T01:18:23.012Z,1013.08
2018-05-24T01:19:23.046Z,1013.08
2018-05-24T01:20:23.079Z,1013.11
2018-05-24T01:21:23.116Z,1013.07
2018-05-24T01:22:23.148Z,1013.06
2018-05-24T01:23:23.183Z,1013.07
2018-05-24T01:24:23.216Z,1013.08
2018-05-24T01:25:23.253Z,1013.08
2018-05-24T01:26:23.287Z,1013.03
2018-05-24T01:27:23.324Z,1013.04
2018-05-24T01:28:23.353Z,1013.05
2018-05-24T01:29:23.387Z,1013.01
2018-05-24T01:30:23.426Z,1013.04
2018-05-24T01:31:23.460Z,1013.00
2018-05-24T01:32:23.495Z,1013.01
2018-05-24T01:33:23.527Z,1013.02
2018-05-24T01:34:23.560Z,1013.01
2018-05-24T01:35:23.592Z,1012.97
2018-05-24T01:36:23.627Z,1013.00
2018-05-24T01:37:23.661Z,1012.98
2018-05-24T01:38:23.689Z,1013.00
2018-05-24T01:39:23.748Z,1013.01
2018-05-24T01:41:16.755Z,1012.98
2018-05-24T01:42:16.782Z,1012.98
2018-05-24T01:44:10.327Z,1012.99
2018-05-24T01:45:10.349Z,1013.00
2018-05-24T01:46:10.384Z,1012.99
2018-05-24T01:47:10.418Z,1012.97
2018-05-24T01:49:03.911Z,1012.98
2018-05-24T01:50:03.932Z,1012.96
2018-05-24T01:51:57.482Z,1012.98
2018-05-24T01:52:57.505Z,1012.95
2018-05-24T01:54:51.505Z,1012.95
2018-05-24T01:55:51.076Z,1012.97
2018-05-24T01:57:44.624Z,1012.96
2018-05-24T01:58:44.646Z,1012.97
2018-05-24T02:00:38.193Z,1012.98
2018-05-24T02:01:38.216Z,1013.00
2018-05-24T02:02:38.250Z,1012.99
2018-05-24T02:03:38.285Z,1013.00
2018-05-24T02:05:31.794Z,1013.03
2018-05-24T02:06:31.801Z,1013.03
2018-05-24T02:08:25.342Z,1013.02
2018-05-24T02:09:26.284Z,1013.04
2018-05-24T02:10:25.407Z,1013.03
2018-05-24T02:12:19.410Z,1013.00
2018-05-24T02:13:18.949Z,1012.98
2018-05-24T02:15:12.502Z,1013.00
2018-05-24T02:16:12.521Z,1012.95
2018-05-24T02:18:06.067Z,1012.95
2018-05-24T02:19:06.090Z,1012.93
2018-05-24T02:20:59.638Z,1012.93
2018-05-24T02:21:59.661Z,1012.92
2018-05-24T02:23:53.200Z,1012.90
2018-05-24T02:24:53.232Z,1012.92
2018-05-24T02:26:46.267Z,1012.89
2018-05-24T02:27:46.291Z,1012.93
2018-05-24T02:29:39.838Z,1012.90
2018-05-24T02:30:39.860Z,1012.92
2018-05-24T02:32:33.415Z,1012.89
2018-05-24T02:33:33.434Z,1012.89
2018-05-24T02:35:26.469Z,1012.86
2018-05-24T02:36:26.488Z,1012.87
2018-05-24T02:38:20.974Z,1012.88
2018-05-24T02:39:20.062Z,1012.88
2018-05-24T02:41:13.610Z,1012.90
2018-05-24T02:42:13.630Z,1012.88
2018-05-24T02:44:07.179Z,1012.89
2018-05-24T02:45:07.199Z,1012.91
2018-05-24T02:47:00.243Z,1012.91
2018-05-24T02:48:00.264Z,1012.90
2018-05-24T02:49:53.808Z,1012.93
2018-05-24T02:50:53.831Z,1012.93
2018-05-24T02:51:53.875Z,1012.95
2018-05-24T02:52:53.950Z,1012.90
2018-05-24T02:54:47.398Z,1012.94
2018-05-24T02:55:47.417Z,1012.94
2018-05-24T02:57:40.958Z,1012.92
2018-05-24T02:58:41.001Z,1012.97
2018-05-24T03:00:34.531Z,1012.97
2018-05-24T03:01:34.559Z,1012.93
2018-05-24T03:03:28.102Z,1012.95
2018-05-24T03:04:28.126Z,1012.93
2018-05-24T03:06:21.672Z,1012.90
2018-05-24T03:07:21.697Z,1012.87
2018-05-24T03:09:15.244Z,1012.89
2018-05-24T03:10:15.306Z,1012.82
2018-05-24T03:12:08.857Z,1012.86
2018-05-24T03:13:08.872Z,1012.84
2018-05-24T03:15:02.446Z,1012.82
2018-05-24T03:16:02.437Z,1012.78
2018-05-24T03:17:55.982Z,1012.83
2018-05-24T03:18:56.023Z,1012.80
2018-05-24T03:20:49.597Z,1012.78
2018-05-24T03:21:49.573Z,1012.81
2018-05-24T03:22:49.599Z,1012.81
2018-05-24T03:23:49.628Z,1012.86
2018-05-24T03:24:49.669Z,1012.83
2018-05-24T03:25:49.692Z,1012.84
2018-05-24T03:26:49.748Z,1012.83
2018-05-24T03:27:49.764Z,1012.85
2018-05-24T03:28:49.803Z,1012.82
2018-05-24T03:29:49.820Z,1012.83
2018-05-24T03:30:49.855Z,1012.85
2018-05-24T03:31:49.890Z,1012.81
2018-05-24T03:32:49.923Z,1012.80
2018-05-24T03:33:49.958Z,1012.81
2018-05-24T03:34:49.986Z,1012.81
2018-05-24T03:35:50.030Z,1012.82
2018-05-24T03:36:50.059Z,1012.81
2018-05-24T03:37:50.094Z,1012.82
2018-05-24T03:38:50.130Z,1012.82
2018-05-24T03:39:50.162Z,1012.83
2018-05-24T03:40:50.197Z,1012.85
2018-05-24T03:41:50.231Z,1012.88
2018-05-24T03:42:50.264Z,1012.87
2018-05-24T03:43:50.300Z,1012.85
2018-05-24T03:44:50.331Z,1012.86
2018-05-24T03:45:50.365Z,1012.85
2018-05-24T03:46:50.401Z,1012.91
2018-05-24T03:47:50.436Z,1012.89
2018-05-24T03:48:50.469Z,1012.87
2018-05-24T03:49:50.502Z,1012.87
2018-05-24T03:50:50.538Z,1012.89
2018-05-24T03:51:50.571Z,1012.87
2018-05-24T03:52:50.603Z,1012.86
2018-05-24T03:53:50.639Z,1012.90
2018-05-24T03:54:50.672Z,1012.87
2018-05-24T03:55:50.709Z,1012.86
2018-05-24T03:56:50.740Z,1012.88
2018-05-24T03:57:50.862Z,1012.85
2018-05-24T03:58:50.809Z,1012.85
2018-05-24T03:59:50.843Z,1012.84
2018-05-24T04:00:50.876Z,1012.87
2018-05-24T04:01:50.913Z,1012.86
2018-05-24T04:02:50.949Z,1012.86
2018-05-24T04:03:50.981Z,1012.85
2018-05-24T04:04:51.015Z,1012.87
2018-05-24T04:05:51.049Z,1012.86
2018-05-24T04:06:51.091Z,1012.86
2018-05-24T04:07:51.117Z,1012.85
2018-05-24T04:08:51.150Z,1012.86
2018-05-24T04:09:51.186Z,1012.86
2018-05-24T04:10:51.976Z,1012.83
2018-05-24T04:11:51.274Z,1012.84
2018-05-24T04:12:51.285Z,1012.87
2018-05-24T04:13:51.322Z,1012.84
2018-05-24T04:14:51.356Z,1012.84
2018-05-24T04:15:51.392Z,1012.80
2018-05-24T04:16:51.424Z,1012.80
2018-05-24T04:17:51.456Z,1012.82
2018-05-24T04:18:51.491Z,1012.79
2018-05-24T04:19:51.529Z,1012.76
2018-05-24T04:20:51.557Z,1012.81
2018-05-24T04:21:51.597Z,1012.79
2018-05-24T04:22:51.628Z,1012.78
2018-05-24T04:23:51.663Z,1012.79
2018-05-24T04:24:51.695Z,1012.80
2018-05-24T04:25:51.729Z,1012.79
2018-05-24T04:26:51.764Z,1012.77
2018-05-24T04:27:51.802Z,1012.78
2018-05-24T04:28:51.837Z,1012.79
2018-05-24T04:29:51.869Z,1012.75
2018-05-24T04:30:51.902Z,1012.79
2018-05-24T04:31:51.935Z,1012.75
2018-05-24T04:32:51.971Z,1012.76
2018-05-24T04:33:52.003Z,1012.75
2018-05-24T04:34:52.040Z,1012.76
2018-05-24T04:35:52.073Z,1012.78
2018-05-24T04:36:52.106Z,1012.79
2018-05-24T04:37:52.142Z,1012.79
2018-05-24T04:38:52.173Z,1012.75
2018-05-24T04:39:52.209Z,1012.78
2018-05-24T04:40:52.243Z,1012.76
2018-05-24T04:41:52.277Z,1012.78
2018-05-24T04:42:52.323Z,1012.77
2018-05-24T04:43:52.346Z,1012.76
2018-05-24T04:44:52.380Z,1012.78
2018-05-24T04:45:52.413Z,1012.81
2018-05-24T04:46:52.444Z,1012.78
2018-05-24T04:47:52.483Z,1012.83
2018-05-24T04:48:52.515Z,1012.80
2018-05-24T04:49:52.549Z,1012.83
2018-05-24T04:50:52.601Z,1012.80
2018-05-24T04:51:52.622Z,1012.82
2018-05-24T04:52:52.653Z,1012.86
2018-05-24T04:53:52.688Z,1012.87
2018-05-24T04:54:52.725Z,1012.84
2018-05-24T04:55:52.755Z,1012.88
2018-05-24T04:56:52.792Z,1012.89
2018-05-24T04:57:52.823Z,1012.87
2018-05-24T04:58:52.859Z,1012.87
2018-05-24T04:59:52.891Z,1012.84
2018-05-24T05:00:52.931Z,1012.86
2018-05-24T05:01:52.961Z,1012.85
2018-05-24T05:02:52.995Z,1012.86
2018-05-24T05:03:53.030Z,1012.85
2018-05-24T05:04:53.062Z,1012.87
2018-05-24T05:05:53.096Z,1012.88
2018-05-24T05:06:53.132Z,1012.90
2018-05-24T05:07:53.173Z,1012.90
2018-05-24T05:08:53.203Z,1012.91
2018-05-24T05:09:53.233Z,1012.89
2018-05-24T05:10:53.268Z,1012.89
2018-05-24T05:11:53.301Z,1012.88
2018-05-24T05:12:53.335Z,1012.91
2018-05-24T05:13:53.369Z,1012.89
2018-05-24T05:14:53.405Z,1012.90
2018-05-24T05:15:53.439Z,1012.90
2018-05-24T05:16:53.474Z,1012.87
2018-05-24T05:17:53.507Z,1012.90
2018-05-24T05:18:53.541Z,1012.91
2018-05-24T05:19:53.577Z,1012.90
2018-05-24T05:20:53.611Z,1012.85
2018-05-24T05:21:53.644Z,1012.89
2018-05-24T05:22:53.677Z,1012.84
2018-05-24T05:23:53.711Z,1012.83
2018-05-24T05:25:47.258Z,1012.81
2018-05-24T05:26:47.280Z,1012.78
2018-05-24T05:28:40.826Z,1012.83
2018-05-24T05:29:40.850Z,1012.83
2018-05-24T05:31:34.397Z,1012.80
2018-05-24T05:32:34.421Z,1012.80
2018-05-24T05:34:27.970Z,1012.78
2018-05-24T05:35:27.998Z,1012.78
2018-05-24T05:37:21.543Z,1012.84
2018-05-24T05:38:21.720Z,1012.83
2018-05-24T05:40:15.109Z,1012.85
2018-05-24T05:41:15.133Z,1012.86
2018-05-24T05:43:08.682Z,1012.83
2018-05-24T05:44:08.704Z,1012.90
2018-05-24T05:46:02.709Z,1012.87
2018-05-24T05:47:02.276Z,1012.91
2018-05-24T05:48:55.819Z,1012.92
2018-05-24T05:49:55.844Z,1012.91
2018-05-24T05:51:49.391Z,1012.92
2018-05-24T05:52:49.417Z,1012.91
2018-05-24T05:54:43.022Z,1012.91
2018-05-24T05:55:42.987Z,1012.86
2018-05-24T05:57:36.533Z,1012.85
2018-05-24T05:58:36.556Z,1012.83
2018-05-24T06:00:30.104Z,1012.85
2018-05-24T06:01:30.152Z,1012.81
2018-05-24T06:03:23.675Z,1012.82
2018-05-24T06:04:23.698Z,1012.81
2018-05-24T06:06:17.249Z,1012.83
2018-05-24T06:07:17.267Z,1012.79
2018-05-24T06:09:10.815Z,1012.82
2018-05-24T06:10:10.837Z,1012.84
2018-05-24T06:12:04.390Z,1012.87
2018-05-24T06:13:04.410Z,1012.84
2018-05-24T06:14:57.956Z,1012.85
2018-05-24T06:15:57.979Z,1012.88
2018-05-24T06:17:51.525Z,1012.92
2018-05-24T06:18:51.548Z,1012.87
2018-05-24T06:20:45.551Z,1012.88
2018-05-24T06:21:45.130Z,1012.88
2018-05-24T06:23:38.667Z,1012.88
2018-05-24T06:24:38.691Z,1012.91
2018-05-24T06:26:32.238Z,1012.90
2018-05-24T06:27:32.260Z,1012.95
2018-05-24T06:29:25.808Z,1012.99
2018-05-24T06:30:25.830Z,1012.98
2018-05-24T06:32:19.379Z,1013.00
2018-05-24T06:33:19.404Z,1013.01
2018-05-24T06:35:13.412Z,1012.98
2018-05-24T06:36:12.973Z,1012.99
2018-05-24T06:38:06.521Z,1012.97
2018-05-24T06:39:06.548Z,1012.98
2018-05-24T06:41:00.093Z,1013.02
2018-05-24T06:42:00.114Z,1012.99
2018-05-24T06:43:53.660Z,1013.03
2018-05-24T06:44:53.683Z,1013.03
2018-05-24T06:45:53.717Z,1013.08
2018-05-24T06:46:53.754Z,1013.09
2018-05-24T06:47:53.788Z,1013.11
2018-05-24T06:48:53.821Z,1013.10
2018-05-24T06:49:53.855Z,1013.09
2018-05-24T06:50:53.891Z,1013.11
2018-05-24T06:51:53.926Z,1013.09
2018-05-24T06:52:53.957Z,1013.13
2018-05-24T06:53:53.999Z,1013.16
2018-05-24T06:54:54.027Z,1013.15
2018-05-24T06:55:54.063Z,1013.12
2018-05-24T06:56:54.094Z,1013.14
2018-05-24T06:57:54.135Z,1013.18
2018-05-24T06:58:54.162Z,1013.16
2018-05-24T06:59:54.257Z,1013.19
2018-05-24T07:00:54.233Z,1013.15
2018-05-24T07:01:54.265Z,1013.15
2018-05-24T07:02:54.302Z,1013.17
2018-05-24T07:03:54.334Z,1013.18
2018-05-24T07:04:54.370Z,1013.19
2018-05-24T07:05:54.466Z,1013.20
2018-05-24T07:06:54.455Z,1013.22
2018-05-24T07:07:54.477Z,1013.25
2018-05-24T07:09:48.010Z,1013.24
2018-05-24T07:10:48.034Z,1013.25
2018-05-24T07:12:41.586Z,1013.29
2018-05-24T07:13:41.606Z,1013.29
2018-05-24T07:15:35.153Z,1013.29
2018-05-24T07:16:35.181Z,1013.28
2018-05-24T07:18:28.757Z,1013.27
2018-05-24T07:19:28.745Z,1013.27
2018-05-24T07:21:22.293Z,1013.26
2018-05-24T07:22:22.321Z,1013.30
2018-05-24T07:24:15.864Z,1013.31
2018-05-24T07:25:15.895Z,1013.30
2018-05-24T07:27:09.442Z,1013.28
2018-05-24T07:28:09.457Z,1013.30
2018-05-24T07:30:03.015Z,1013.29
2018-05-24T07:31:03.032Z,1013.26
2018-05-24T07:32:56.575Z,1013.28
2018-05-24T07:33:56.599Z,1013.27
2018-05-24T07:35:50.147Z,1013.27
2018-05-24T07:36:50.169Z,1013.28
2018-05-24T07:38:43.719Z,1013.23
2018-05-24T07:39:43.791Z,1013.25
2018-05-24T07:41:37.289Z,1013.23
2018-05-24T07:42:37.310Z,1013.24
2018-05-24T07:43:37.344Z,1013.19
2018-05-24T07:44:37.379Z,1013.20
2018-05-24T07:45:37.413Z,1013.20
2018-05-24T07:46:37.446Z,1013.20
2018-05-24T07:47:37.480Z,1013.20
2018-05-24T07:48:37.516Z,1013.19
2018-05-24T07:49:37.550Z,1013.23
2018-05-24T07:50:37.586Z,1013.24
2018-05-24T07:51:37.619Z,1013.22
2018-05-24T07:52:37.652Z,1013.18
2018-05-24T07:53:37.688Z,1013.21
2018-05-24T07:54:37.728Z,1013.17
2018-05-24T07:55:37.757Z,1013.18
2018-05-24T07:56:37.789Z,1013.16
2018-05-24T07:57:37.823Z,1013.13
2018-05-24T07:58:37.856Z,1013.17
2018-05-24T07:59:37.893Z,1013.16
2018-05-24T08:00:37.928Z,1013.13
2018-05-24T08:01:37.986Z,1013.13
2018-05-24T08:02:37.994Z,1013.11
2018-05-24T08:03:38.028Z,1013.13
2018-05-24T08:04:38.064Z,1013.08
2018-05-24T08:05:38.105Z,1013.14
2018-05-24T08:06:38.132Z,1013.11
2018-05-24T08:07:38.165Z,1013.07
2018-05-24T08:08:38.255Z,1013.06
2018-05-24T08:09:38.234Z,1013.08
2018-05-24T08:10:38.267Z,1013.06
2018-05-24T08:11:38.303Z,1013.08
2018-05-24T08:12:38.341Z,1013.04
2018-05-24T08:13:38.372Z,1013.00
2018-05-24T08:14:38.458Z,1013.04
2018-05-24T08:15:38.440Z,1013.05
2018-05-24T08:16:38.474Z,1013.03
2018-05-24T08:17:38.507Z,1013.05
2018-05-24T08:18:38.540Z,1013.09
2018-05-24T08:19:38.593Z,1013.07
2018-05-24T08:20:38.611Z,1013.06
2018-05-24T08:21:38.643Z,1013.07
2018-05-24T08:22:38.678Z,1013.05
2018-05-24T08:23:38.713Z,1013.07
2018-05-24T08:24:38.744Z,1013.02
2018-05-24T08:25:38.791Z,1013.06
2018-05-24T08:26:38.816Z,1013.05
2018-05-24T08:27:38.851Z,1013.04
2018-05-24T08:28:38.884Z,1013.08
2018-05-24T08:29:38.921Z,1013.04
2018-05-24T08:30:38.958Z,1013.05
2018-05-24T08:31:38.989Z,1013.03
2018-05-24T08:32:39.021Z,1013.02
2018-05-24T08:33:39.054Z,1013.02
2018-05-24T08:34:39.093Z,1012.92
2018-05-24T08:35:39.123Z,1012.94
2018-05-24T08:36:39.160Z,1012.92
2018-05-24T08:37:39.195Z,1012.90
2018-05-24T08:38:39.228Z,1012.86
2018-05-24T08:39:39.268Z,1012.88
2018-05-24T08:40:39.391Z,1012.89
2018-05-24T08:41:39.370Z,1012.88
2018-05-24T08:42:39.363Z,1012.89
2018-05-24T08:43:39.399Z,1012.84
2018-05-24T08:44:39.432Z,1012.88
2018-05-24T08:45:39.476Z,1012.83
2018-05-24T08:46:39.501Z,1012.81
2018-05-24T08:47:39.535Z,1012.81
2018-05-24T08:48:39.576Z,1012.83
2018-05-24T08:49:39.606Z,1012.80
2018-05-24T08:50:39.639Z,1012.79
2018-05-24T08:51:39.673Z,1012.82
2018-05-24T08:52:39.708Z,1012.82
2018-05-24T08:53:39.740Z,1012.83
2018-05-24T08:54:39.773Z,1012.83
2018-05-24T08:55:39.809Z,1012.80
2018-05-24T08:56:39.842Z,1012.75
2018-05-24T08:57:39.877Z,1012.78
2018-05-24T08:58:39.911Z,1012.76
2018-05-24T08:59:39.949Z,1012.77
2018-05-24T09:00:39.984Z,1012.76
2018-05-24T09:01:40.014Z,1012.77
2018-05-24T09:02:40.048Z,1012.74
2018-05-24T09:03:40.124Z,1012.73
2018-05-24T09:04:40.116Z,1012.74
2018-05-24T09:05:40.150Z,1012.70
2018-05-24T09:06:40.186Z,1012.73
2018-05-24T09:07:40.220Z,1012.73
2018-05-24T09:08:40.253Z,1012.72
2018-05-24T09:09:40.289Z,1012.71
2018-05-24T09:10:40.326Z,1012.72
2018-05-24T09:11:40.358Z,1012.73
2018-05-24T09:12:40.399Z,1012.77
2018-05-24T09:13:40.423Z,1012.75
2018-05-24T09:14:40.467Z,1012.74
2018-05-24T09:15:40.493Z,1012.73
2018-05-24T09:16:40.537Z,1012.78
2018-05-24T09:17:40.630Z,1012.73
2018-05-24T09:18:40.596Z,1012.75
2018-05-24T09:19:40.631Z,1012.72
2018-05-24T09:20:40.668Z,1012.71
2018-05-24T09:21:40.744Z,1012.73
2018-05-24T09:22:40.732Z,1012.74
2018-05-24T09:23:40.785Z,1012.76
2018-05-24T09:24:40.801Z,1012.73
2018-05-24T09:25:40.834Z,1012.73
2018-05-24T09:26:40.871Z,1012.70
2018-05-24T09:27:40.908Z,1012.70
2018-05-24T09:28:40.947Z,1012.70
2018-05-24T09:29:40.971Z,1012.69
2018-05-24T09:30:41.046Z,1012.71
2018-05-24T09:31:41.041Z,1012.66
2018-05-24T09:32:41.076Z,1012.68
2018-05-24T09:33:41.110Z,1012.68
2018-05-24T09:34:41.146Z,1012.69
2018-05-24T09:35:41.180Z,1012.65
2018-05-24T09:36:41.213Z,1012.65
2018-05-24T09:37:41.245Z,1012.67
2018-05-24T09:38:41.280Z,1012.68
2018-05-24T09:39:41.313Z,1012.66
2018-05-24T09:40:41.350Z,1012.60
2018-05-24T09:41:41.382Z,1012.69
2018-05-24T09:42:41.420Z,1012.65
2018-05-24T09:43:41.452Z,1012.60
2018-05-24T09:44:41.481Z,1012.64
2018-05-24T09:45:41.520Z,1012.65
2018-05-24T09:46:41.552Z,1012.62
2018-05-24T09:47:41.588Z,1012.61
2018-05-24T09:48:41.622Z,1012.61
2018-05-24T09:49:41.657Z,1012.65
2018-05-24T09:50:41.699Z,1012.68
2018-05-24T09:51:41.725Z,1012.65
2018-05-24T09:52:41.759Z,1012.65
2018-05-24T09:53:41.793Z,1012.66
2018-05-24T09:54:41.828Z,1012.66
2018-05-24T09:55:41.861Z,1012.71
2018-05-24T09:56:41.898Z,1012.69
2018-05-24T09:57:41.930Z,1012.67
2018-05-24T09:58:41.966Z,1012.66
2018-05-24T09:59:42.005Z,1012.64
2018-05-24T10:00:42.033Z,1012.64
2018-05-24T10:01:42.066Z,1012.65
2018-05-24T10:02:42.104Z,1012.65
2018-05-24T10:03:42.136Z,1012.61
2018-05-24T10:04:42.213Z,1012.62
2018-05-24T10:05:42.207Z,1012.62
2018-05-24T10:06:42.237Z,1012.60
2018-05-24T10:07:42.273Z,1012.60
2018-05-24T10:08:42.307Z,1012.61
2018-05-24T10:09:42.345Z,1012.64
2018-05-24T10:10:42.493Z,1012.62
2018-05-24T10:11:42.414Z,1012.64
2018-05-24T10:12:42.444Z,1012.60
2018-05-24T10:13:42.478Z,1012.64
2018-05-24T10:14:42.512Z,1012.62
2018-05-24T10:15:42.546Z,1012.61
2018-05-24T10:16:42.586Z,1012.64
2018-05-24T10:17:42.614Z,1012.63
2018-05-24T10:18:42.650Z,1012.64
2018-05-24T10:19:42.683Z,1012.66
2018-05-24T10:20:42.718Z,1012.66
2018-05-24T10:21:42.750Z,1012.65
2018-05-24T10:22:42.787Z,1012.67
2018-05-24T10:23:42.821Z,1012.67
2018-05-24T10:24:42.854Z,1012.67
2018-05-24T10:25:42.889Z,1012.65
2018-05-24T10:26:42.922Z,1012.63
2018-05-24T10:27:42.962Z,1012.64
2018-05-24T10:28:42.991Z,1012.61
2018-05-24T10:29:43.025Z,1012.61
2018-05-24T10:30:43.061Z,1012.58
2018-05-24T10:31:43.096Z,1012.60
2018-05-24T10:32:43.128Z,1012.58
2018-05-24T10:33:43.168Z,1012.59
2018-05-24T10:34:43.196Z,1012.58
2018-05-24T10:35:43.232Z,1012.53
2018-05-24T10:36:43.276Z,1012.53
2018-05-24T10:37:43.301Z,1012.53
2018-05-24T10:38:43.337Z,1012.54
2018-05-24T10:39:43.371Z,1012.55
2018-05-24T10:40:43.405Z,1012.50
2018-05-24T10:41:43.460Z,1012.51
2018-05-24T10:42:43.472Z,1012.47
2018-05-24T10:43:43.505Z,1012.50
2018-05-24T10:44:43.540Z,1012.49
2018-05-24T10:45:43.578Z,1012.48
2018-05-24T10:46:43.608Z,1012.41
2018-05-24T10:47:43.641Z,1012.41
2018-05-24T10:48:43.679Z,1012.40
2018-05-24T10:49:43.710Z,1012.37
2018-05-24T10:50:43.749Z,1012.38
2018-05-24T10:51:43.779Z,1012.38
2018-05-24T10:52:43.814Z,1012.39
2018-05-24T10:53:43.848Z,1012.37
2018-05-24T10:54:43.886Z,1012.36
2018-05-24T10:55:43.917Z,1012.33
2018-05-24T10:56:43.955Z,1012.30
2018-05-24T10:57:43.984Z,1012.36
2018-05-24T10:58:44.016Z,1012.29
2018-05-24T10:59:44.149Z,1012.29
2018-05-24T11:00:44.100Z,1012.27
2018-05-24T11:01:44.118Z,1012.27
2018-05-24T11:02:44.157Z,1012.23
2018-05-24T11:03:44.191Z,1012.21
2018-05-24T11:04:44.227Z,1012.22
2018-05-24T11:05:44.264Z,1012.22
2018-05-24T11:06:44.298Z,1012.19
2018-05-24T11:07:44.331Z,1012.21
2018-05-24T11:08:44.360Z,1012.21
2018-05-24T11:09:44.395Z,1012.20
2018-05-24T11:10:44.470Z,1012.18
2018-05-24T11:11:44.524Z,1012.13
2018-05-24T11:12:44.502Z,1012.14
2018-05-24T11:13:44.533Z,1012.12
2018-05-24T11:14:44.568Z,1012.09
2018-05-24T11:15:44.608Z,1012.10
2018-05-24T11:16:44.638Z,1012.08
2018-05-24T11:17:44.670Z,1012.13
2018-05-24T11:18:44.706Z,1012.04
2018-05-24T11:19:44.739Z,1012.07
2018-05-24T11:20:44.772Z,1012.04
2018-05-24T11:21:44.806Z,1012.08
2018-05-24T11:22:44.844Z,1012.10
2018-05-24T11:23:44.885Z,1012.03
2018-05-24T11:24:44.912Z,1012.06
2018-05-24T11:25:44.972Z,1012.06
2018-05-24T11:26:44.984Z,1012.08
2018-05-24T11:27:45.013Z,1012.05
2018-05-24T11:28:45.055Z,1012.12
2018-05-24T11:29:45.083Z,1012.10
2018-05-24T11:30:45.117Z,1012.08
2018-05-24T11:31:45.238Z,1012.10
2018-05-24T11:32:45.205Z,1012.13
2018-05-24T11:33:45.217Z,1012.12
2018-05-24T11:34:45.252Z,1012.11
2018-05-24T11:35:45.286Z,1012.12
2018-05-24T11:36:45.331Z,1012.10
2018-05-24T11:37:45.356Z,1012.13
2018-05-24T11:38:45.390Z,1012.12
2018-05-24T11:39:45.435Z,1012.07
2018-05-24T11:40:45.457Z,1012.06
2018-05-24T11:41:45.493Z,1012.08
2018-05-24T11:42:45.526Z,1012.08
2018-05-24T11:43:45.570Z,1012.06
2018-05-24T11:44:45.595Z,1012.07
2018-05-24T11:45:45.630Z,1012.03
2018-05-24T11:46:45.667Z,1012.02
2018-05-24T11:48:39.178Z,1012.06
2018-05-24T11:49:39.204Z,1011.99
2018-05-24T11:51:32.754Z,1012.01
2018-05-24T11:52:32.769Z,1011.96
2018-05-24T11:54:26.320Z,1011.95
2018-05-24T11:55:26.343Z,1011.99
2018-05-24T11:57:19.890Z,1011.91
2018-05-24T11:58:19.916Z,1011.95
2018-05-24T12:00:13.919Z,1011.92
2018-05-24T12:01:13.493Z,1011.91
2018-05-24T12:03:07.040Z,1011.91
2018-05-24T12:04:07.054Z,1011.90
2018-05-24T12:06:00.605Z,1011.85
2018-05-24T12:07:00.712Z,1011.85
2018-05-24T12:08:53.659Z,1011.88
2018-05-24T12:09:53.779Z,1011.87
2018-05-24T12:11:46.714Z,1011.83
2018-05-24T12:12:46.747Z,1011.82
2018-05-24T12:14:39.793Z,1011.83
2018-05-24T12:15:39.802Z,1011.80
2018-05-24T12:17:33.347Z,1011.77
2018-05-24T12:18:33.372Z,1011.78
2018-05-24T12:20:26.922Z,1011.77
2018-05-24T12:21:26.943Z,1011.79
2018-05-24T12:23:20.493Z,1011.78
2018-05-24T12:24:20.511Z,1011.76
2018-05-24T12:26:13.547Z,1011.74
2018-05-24T12:27:13.571Z,1011.72
2018-05-24T12:29:07.191Z,1011.72
2018-05-24T12:30:07.144Z,1011.71
2018-05-24T12:32:00.689Z,1011.68
2018-05-24T12:33:00.711Z,1011.70
2018-05-24T12:34:54.259Z,1011.66
2018-05-24T12:35:54.333Z,1011.65
2018-05-24T12:37:47.833Z,1011.65
2018-05-24T12:38:47.854Z,1011.65
2018-05-24T12:40:41.402Z,1011.66
2018-05-24T12:41:41.516Z,1011.62
2018-05-24T12:43:34.972Z,1011.60
2018-05-24T12:44:34.994Z,1011.63
2018-05-24T12:46:28.541Z,1011.56
2018-05-24T12:47:28.564Z,1011.54
2018-05-24T12:49:22.111Z,1011.58
2018-05-24T12:50:22.135Z,1011.53
2018-05-24T12:52:15.682Z,1011.51
2018-05-24T12:53:15.704Z,1011.46
2018-05-24T12:55:09.253Z,1011.50
2018-05-24T12:56:09.275Z,1011.49
2018-05-24T12:58:02.823Z,1011.53
2018-05-24T12:59:02.844Z,1011.47
2018-05-24T13:01:08.068Z,1011.48
2018-05-24T13:02:08.089Z,1011.45
2018-05-24T13:04:01.640Z,1011.46
2018-05-24T13:05:01.667Z,1011.42
2018-05-24T13:06:55.209Z,1011.42
2018-05-24T13:07:55.230Z,1011.43
2018-05-24T13:09:48.848Z,1011.39
2018-05-24T13:10:48.804Z,1011.40
2018-05-24T13:11:48.834Z,1011.39
2018-05-24T13:12:48.869Z,1011.36
2018-05-24T13:13:48.905Z,1011.40
2018-05-24T13:14:48.938Z,1011.41
2018-05-24T13:15:48.972Z,1011.40
2018-05-24T13:16:49.012Z,1011.36
2018-05-24T13:17:49.040Z,1011.38
2018-05-24T13:18:49.078Z,1011.35
2018-05-24T13:19:49.110Z,1011.37
2018-05-24T13:20:49.146Z,1011.33
2018-05-24T13:21:49.180Z,1011.35
2018-05-24T13:22:49.214Z,1011.40
2018-05-24T13:23:49.251Z,1011.37
2018-05-24T13:24:49.282Z,1011.39
2018-05-24T13:25:49.315Z,1011.39
2018-05-24T13:26:49.351Z,1011.39
2018-05-24T13:27:49.384Z,1011.39
2018-05-24T13:28:49.423Z,1011.43
2018-05-24T13:29:49.453Z,1011.39
2018-05-24T13:30:49.504Z,1011.35
2018-05-24T13:31:49.523Z,1011.37
2018-05-24T13:32:49.560Z,1011.38
2018-05-24T13:33:49.590Z,1011.38
2018-05-24T13:34:49.624Z,1011.38
2018-05-24T13:35:49.661Z,1011.36
2018-05-24T13:36:49.702Z,1011.39
2018-05-24T13:37:49.729Z,1011.35
2018-05-24T13:38:49.762Z,1011.34
2018-05-24T13:39:49.798Z,1011.33
2018-05-24T13:40:49.829Z,1011.31
2018-05-24T13:41:49.864Z,1011.31
2018-05-24T13:42:49.901Z,1011.28
2018-05-24T13:43:49.933Z,1011.25
2018-05-24T13:44:49.973Z,1011.24
2018-05-24T13:45:50.002Z,1011.23
2018-05-24T13:46:50.036Z,1011.18
2018-05-24T13:47:50.073Z,1011.19
2018-05-24T13:48:50.105Z,1011.18
2018-05-24T13:49:50.138Z,1011.15
2018-05-24T13:50:50.176Z,1011.16
2018-05-24T13:51:50.210Z,1011.17
2018-05-24T13:52:50.245Z,1011.18
2018-05-24T13:53:50.276Z,1011.17
2018-05-24T13:54:50.311Z,1011.19
2018-05-24T13:55:50.345Z,1011.16
2018-05-24T13:56:50.381Z,1011.15